createdAt,value
2022-10-17T00:01:54.325Z,13.06
2022-10-17T00:04:20.779Z,13.13
2022-10-17T00:06:47.208Z,13.20
2022-10-17T00:09:13.738Z,13.17
2022-10-17T00:11:40.152Z,13.20
2022-10-17T00:14:06.690Z,13.23
2022-10-17T00:16:36.871Z,13.24
2022-10-17T00:19:07.284Z,13.31
2022-10-17T00:21:34.109Z,13.25
2022-10-17T00:24:01.184Z,13.38
2022-10-17T00:26:29.536Z,13.42
2022-10-17T00:28:56.550Z,13.26
2022-10-17T00:31:24.412Z,13.34
2022-10-17T00:33:51.767Z,13.35
2022-10-17T00:36:21.929Z,13.32
2022-10-17T00:38:51.317Z,13.34
2022-10-17T00:41:20.007Z,13.34
2022-10-17T00:43:54.375Z,13.39
2022-10-17T00:46:22.088Z,13.35
2022-10-17T00:48:50.914Z,13.27
2022-10-17T00:51:20.374Z,13.34
2022-10-17T00:53:46.905Z,13.18
2022-10-17T00:56:13.743Z,13.28
2022-10-17T00:58:40.316Z,13.13
2022-10-17T01:01:06.711Z,13.15
2022-10-17T01:03:33.152Z,13.21
2022-10-17T01:05:59.855Z,13.11
2022-10-17T01:08:26.821Z,13.11
2022-10-17T01:11:26.485Z,13.18
2022-10-17T01:14:02.665Z,13.12
2022-10-17T01:17:02.921Z,13.19
2022-10-17T01:20:01.809Z,13.04
2022-10-17T01:22:40.721Z,12.99
2022-10-17T01:25:16.396Z,12.98
2022-10-17T01:27:56.612Z,12.93
2022-10-17T01:31:00.432Z,12.94
2022-10-17T01:33:48.255Z,12.91
2022-10-17T01:36:22.684Z,12.83
2022-10-17T01:38:53.584Z,12.80
2022-10-17T01:41:31.049Z,12.78
2022-10-17T01:44:08.397Z,12.90
2022-10-17T01:46:37.884Z,12.78
2022-10-17T01:49:07.964Z,12.81
2022-10-17T01:51:42.688Z,12.72
2022-10-17T01:54:18.498Z,12.76
2022-10-17T01:56:47.985Z,12.68
2022-10-17T01:59:22.215Z,12.62
2022-10-17T02:01:52.791Z,12.62
2022-10-17T02:04:19.629Z,12.66
2022-10-17T02:06:46.044Z,12.64
2022-10-17T02:09:24.816Z,12.72
2022-10-17T02:12:29.740Z,12.71
2022-10-17T02:15:23.645Z,12.73
2022-10-17T02:17:52.946Z,12.82
2022-10-17T02:20:36.493Z,12.69
2022-10-17T02:23:12.448Z,12.84
2022-10-17T02:25:46.029Z,12.65
2022-10-17T02:28:19.742Z,12.73
2022-10-17T02:30:46.035Z,12.68
2022-10-17T02:33:20.802Z,12.56
2022-10-17T02:35:52.052Z,12.60
2022-10-17T02:38:18.972Z,12.48
2022-10-17T02:40:46.397Z,12.49
2022-10-17T02:43:13.707Z,12.52
2022-10-17T02:45:40.869Z,12.45
2022-10-17T02:48:30.931Z,12.24
2022-10-17T02:51:07.657Z,12.31
2022-10-17T02:53:52.161Z,12.25
2022-10-17T02:56:21.220Z,12.23
2022-10-17T02:58:57.008Z,12.26
2022-10-17T03:01:24.817Z,12.21
2022-10-17T03:03:51.212Z,12.36
2022-10-17T03:06:17.634Z,12.32
2022-10-17T03:08:43.988Z,12.33
2022-10-17T03:11:10.349Z,12.46
2022-10-17T03:13:39.686Z,12.49
2022-10-17T03:16:06.554Z,12.32
2022-10-17T03:18:32.948Z,12.46
2022-10-17T03:20:59.313Z,12.38
2022-10-17T03:23:25.647Z,12.36
2022-10-17T03:25:52.028Z,12.33
2022-10-17T03:28:18.404Z,12.38
2022-10-17T03:30:44.740Z,12.30
2022-10-17T03:33:11.120Z,12.35
2022-10-17T03:35:40.221Z,12.23
2022-10-17T03:38:06.700Z,12.35
2022-10-17T03:40:33.071Z,12.28
2022-10-17T03:42:59.417Z,12.35
2022-10-17T03:45:25.769Z,12.53
2022-10-17T03:47:52.131Z,12.39
2022-10-17T03:50:18.514Z,12.30
2022-10-17T03:52:48.962Z,12.28
2022-10-17T03:55:16.466Z,12.16
2022-10-17T03:57:45.400Z,12.21
2022-10-17T04:00:13.022Z,12.21
2022-10-17T04:02:39.525Z,12.19
2022-10-17T04:05:06.470Z,12.09
2022-10-17T04:07:32.888Z,12.29
2022-10-17T04:09:59.252Z,12.12
2022-10-17T04:12:25.595Z,12.35
2022-10-17T04:14:51.927Z,12.07
2022-10-17T04:17:18.345Z,12.16
2022-10-17T04:19:44.708Z,12.08
2022-10-17T04:22:11.074Z,12.15
2022-10-17T04:24:37.424Z,12.13
2022-10-17T04:27:03.910Z,12.09
2022-10-17T04:29:30.259Z,12.12
2022-10-17T04:31:56.617Z,12.06
2022-10-17T04:34:22.959Z,12.09
2022-10-17T04:36:49.365Z,12.06
2022-10-17T04:39:15.729Z,12.07
2022-10-17T04:41:42.365Z,12.08
2022-10-17T04:44:10.786Z,12.11
2022-10-17T04:46:37.247Z,12.13
2022-10-17T04:49:03.664Z,12.30
2022-10-17T04:51:30.053Z,12.36
2022-10-17T04:53:56.410Z,12.27
2022-10-17T04:56:24.110Z,12.22
2022-10-17T04:58:51.072Z,12.20
2022-10-17T05:01:20.028Z,12.21
2022-10-17T05:03:46.657Z,12.27
2022-10-17T05:06:18.598Z,12.28
2022-10-17T05:08:45.596Z,12.45
2022-10-17T05:11:20.440Z,12.61
2022-10-17T05:13:52.059Z,12.68
2022-10-17T05:16:18.524Z,12.59
2022-10-17T05:18:47.428Z,12.51
2022-10-17T05:21:15.895Z,12.52
2022-10-17T05:23:42.278Z,12.37
2022-10-17T05:26:08.644Z,12.40
2022-10-17T05:28:35.144Z,12.42
2022-10-17T05:31:06.029Z,12.43
2022-10-17T05:33:33.216Z,12.46
2022-10-17T05:35:59.621Z,12.64
2022-10-17T05:38:26.757Z,12.52
2022-10-17T05:41:00.478Z,12.59
2022-10-17T05:43:27.376Z,12.45
2022-10-17T05:45:54.347Z,12.30
2022-10-17T05:48:21.807Z,12.31
2022-10-17T05:50:48.801Z,12.25
2022-10-17T05:53:16.065Z,12.35
2022-10-17T05:55:42.443Z,12.22
2022-10-17T05:58:11.718Z,12.27
2022-10-17T06:00:44.161Z,12.14
2022-10-17T06:03:12.343Z,12.12
2022-10-17T06:05:38.704Z,12.06
2022-10-17T06:08:05.230Z,12.21
2022-10-17T06:10:31.578Z,12.13
2022-10-17T06:12:57.926Z,12.32
2022-10-17T06:15:24.258Z,12.29
2022-10-17T06:17:50.818Z,12.31
2022-10-17T06:20:17.285Z,12.40
2022-10-17T06:22:43.821Z,12.40
2022-10-17T06:25:10.374Z,12.52
2022-10-17T06:27:36.727Z,12.61
2022-10-17T06:30:04.018Z,12.70
2022-10-17T06:32:30.813Z,12.74
2022-10-17T06:34:57.418Z,12.85
2022-10-17T06:37:23.789Z,12.94
2022-10-17T06:39:50.130Z,12.93
2022-10-17T06:42:16.909Z,12.92
2022-10-17T06:44:43.295Z,12.98
2022-10-17T06:47:10.238Z,13.08
2022-10-17T06:49:36.580Z,13.14
2022-10-17T06:52:02.953Z,13.15
2022-10-17T06:54:29.381Z,13.31
2022-10-17T06:56:56.178Z,13.29
2022-10-17T06:59:22.575Z,13.34
2022-10-17T07:01:48.965Z,13.26
2022-10-17T07:04:15.323Z,13.30
2022-10-17T07:06:41.875Z,13.48
2022-10-17T07:09:08.286Z,13.56
2022-10-17T07:11:35.178Z,13.51
2022-10-17T07:14:02.553Z,13.54
2022-10-17T07:16:29.454Z,13.62
2022-10-17T07:18:56.159Z,13.65
2022-10-17T07:21:22.576Z,13.65
2022-10-17T07:23:49.103Z,13.72
2022-10-17T07:26:17.591Z,13.83
2022-10-17T07:28:46.276Z,13.87
2022-10-17T07:31:15.995Z,13.91
2022-10-17T07:33:43.523Z,13.96
2022-10-17T07:36:09.978Z,14.05
2022-10-17T07:38:36.694Z,14.15
2022-10-17T07:41:06.047Z,14.20
2022-10-17T07:43:33.792Z,14.27
2022-10-17T07:46:02.626Z,14.46
2022-10-17T07:48:29.738Z,14.49
2022-10-17T07:50:56.171Z,14.56
2022-10-17T07:53:22.528Z,14.58
2022-10-17T07:55:49.651Z,14.60
2022-10-17T07:58:16.473Z,14.67
2022-10-17T08:00:43.378Z,14.69
2022-10-17T08:03:10.862Z,14.72
2022-10-17T08:05:37.213Z,14.76
2022-10-17T08:08:03.695Z,14.75
2022-10-17T08:10:30.097Z,14.85
2022-10-17T08:12:57.931Z,14.89
2022-10-17T08:15:29.351Z,14.94
2022-10-17T08:17:59.482Z,15.01
2022-10-17T08:20:25.978Z,15.09
2022-10-17T08:22:53.744Z,15.07
2022-10-17T08:25:20.232Z,15.16
2022-10-17T08:27:46.742Z,15.27
2022-10-17T08:30:13.452Z,15.29
2022-10-17T08:32:39.991Z,15.35
2022-10-17T08:35:06.908Z,15.35
2022-10-17T08:37:33.598Z,15.38
2022-10-17T08:40:00.241Z,15.47
2022-10-17T08:42:45.398Z,15.49
2022-10-17T08:45:26.922Z,15.50
2022-10-17T08:47:59.018Z,15.45
2022-10-17T08:50:48.391Z,15.62
2022-10-17T08:53:36.244Z,15.99
2022-10-17T08:59:17.640Z,16.07
2022-10-17T09:02:02.805Z,16.10
2022-10-17T09:04:47.531Z,16.29
2022-10-17T09:07:46.172Z,16.19
2022-10-17T09:10:28.583Z,16.35
2022-10-17T09:13:24.518Z,16.35
2022-10-17T09:16:14.820Z,16.50
2022-10-17T09:18:46.001Z,16.62
2022-10-17T09:21:20.838Z,16.65
2022-10-17T09:24:08.897Z,16.85
2022-10-17T09:26:39.200Z,16.90
2022-10-17T09:29:15.598Z,16.94
2022-10-17T09:34:32.058Z,17.03
2022-10-17T09:37:00.807Z,17.02
2022-10-17T09:39:31.792Z,17.15
2022-10-17T09:41:59.932Z,17.12
2022-10-17T09:44:47.498Z,17.22
2022-10-17T09:47:34.456Z,17.27
2022-10-17T09:50:01.479Z,17.26
2022-10-17T09:52:36.310Z,17.27
2022-10-17T09:55:17.426Z,17.26
2022-10-17T09:58:00.577Z,17.27
2022-10-17T10:00:30.612Z,17.29
2022-10-17T10:03:20.237Z,17.33
2022-10-17T10:06:03.777Z,17.53
2022-10-17T10:08:34.226Z,17.54
2022-10-17T10:11:07.876Z,17.41
2022-10-17T10:13:36.023Z,17.55
2022-10-17T10:16:32.369Z,17.64
2022-10-17T10:18:58.939Z,17.62
2022-10-17T10:21:27.465Z,17.60
2022-10-17T10:23:59.673Z,17.59
2022-10-17T10:26:29.532Z,17.56
2022-10-17T10:29:02.511Z,17.57
2022-10-17T10:31:39.809Z,17.57
2022-10-17T10:34:32.726Z,17.61
2022-10-17T10:37:06.280Z,17.61
2022-10-17T10:39:32.570Z,17.62
2022-10-17T10:42:01.223Z,17.70
2022-10-17T10:44:32.032Z,17.69
2022-10-17T10:47:28.069Z,17.83
2022-10-17T10:50:37.558Z,17.90
2022-10-17T10:53:14.729Z,17.96
2022-10-17T10:55:51.471Z,18.04
2022-10-17T10:58:33.127Z,18.09
2022-10-17T11:01:05.043Z,18.13
2022-10-17T11:06:18.941Z,18.16
2022-10-17T11:09:06.516Z,18.17
2022-10-17T11:11:39.737Z,18.36
2022-10-17T11:14:38.862Z,18.20
2022-10-17T11:17:20.398Z,18.26
2022-10-17T11:19:58.774Z,18.26
2022-10-17T11:22:32.356Z,18.23
2022-10-17T11:25:26.163Z,18.43
2022-10-17T11:27:52.556Z,18.48
2022-10-17T11:30:19.200Z,18.52
2022-10-17T11:32:54.071Z,18.64
2022-10-17T11:35:45.147Z,18.66
2022-10-17T11:38:21.136Z,18.60
2022-10-17T11:40:54.118Z,18.76
2022-10-17T11:43:28.633Z,18.84
2022-10-17T11:45:59.534Z,18.87
2022-10-17T11:48:35.601Z,18.85
2022-10-17T11:54:04.249Z,18.87
2022-10-17T11:57:02.767Z,18.88
2022-10-17T11:59:45.839Z,18.91
2022-10-17T12:02:30.930Z,18.77
2022-10-17T12:05:20.984Z,19.01
2022-10-17T12:07:53.154Z,19.15
2022-10-17T12:10:48.980Z,19.12
2022-10-17T12:13:27.560Z,19.12
2022-10-17T12:16:17.949Z,19.19
2022-10-17T12:18:45.454Z,19.20
2022-10-17T12:21:12.103Z,19.31
2022-10-17T12:23:39.924Z,19.19
2022-10-17T12:26:09.364Z,19.18
2022-10-17T12:28:39.314Z,19.21
2022-10-17T12:31:29.620Z,19.27
2022-10-17T12:34:00.866Z,19.54
2022-10-17T12:36:27.170Z,19.46
2022-10-17T12:39:02.717Z,19.60
2022-10-17T12:41:38.318Z,19.62
2022-10-17T12:44:13.853Z,19.56
2022-10-17T12:46:55.706Z,19.55
2022-10-17T12:49:47.124Z,19.38
2022-10-17T12:52:28.928Z,19.27
2022-10-17T12:55:11.616Z,19.28
2022-10-17T12:57:59.377Z,19.19
2022-10-17T13:00:43.795Z,19.34
2022-10-17T13:03:20.253Z,19.25
2022-10-17T13:05:55.520Z,19.34
2022-10-17T13:08:32.810Z,19.66
2022-10-17T13:11:00.680Z,19.74
2022-10-17T13:13:42.725Z,19.86
2022-10-17T13:16:09.258Z,19.78
2022-10-17T13:18:35.916Z,19.84
2022-10-17T13:21:15.857Z,19.86
2022-10-17T13:23:42.297Z,19.99
2022-10-17T13:26:22.138Z,19.87
2022-10-17T13:29:01.713Z,19.80
2022-10-17T13:31:31.815Z,19.62
2022-10-17T13:34:00.753Z,19.66
2022-10-17T13:36:29.337Z,19.76
2022-10-17T13:38:57.481Z,20.04
2022-10-17T13:41:35.729Z,19.83
2022-10-17T13:44:09.218Z,19.68
2022-10-17T13:46:38.473Z,19.61
2022-10-17T13:49:20.075Z,19.44
2022-10-17T13:51:50.766Z,19.48
2022-10-17T13:54:34.066Z,19.34
2022-10-17T13:57:02.004Z,19.29
2022-10-17T13:59:34.378Z,19.21
2022-10-17T14:02:01.943Z,19.22
2022-10-17T14:04:35.509Z,19.30
2022-10-17T14:07:29.269Z,19.28
2022-10-17T14:09:57.914Z,19.21
2022-10-17T14:12:24.324Z,19.18
2022-10-17T14:15:10.404Z,19.21
2022-10-17T14:17:38.503Z,19.03
2022-10-17T14:20:26.640Z,19.11
2022-10-17T14:23:20.935Z,19.11
2022-10-17T14:25:40.820Z,19.14
2022-10-17T14:28:09.108Z,19.09
2022-10-17T14:30:55.881Z,19.02
2022-10-17T14:33:28.439Z,19.05
2022-10-17T14:35:57.523Z,19.22
2022-10-17T14:38:25.219Z,19.50
2022-10-17T14:41:23.581Z,19.65
2022-10-17T14:44:06.386Z,19.50
2022-10-17T14:46:35.670Z,19.51
2022-10-17T14:49:15.193Z,19.41
2022-10-17T14:52:07.517Z,19.31
2022-10-17T14:54:35.877Z,19.38
2022-10-17T14:57:14.688Z,19.22
2022-10-17T14:59:56.426Z,19.10
2022-10-17T15:02:28.481Z,19.03
2022-10-17T15:04:55.692Z,19.06
2022-10-17T15:07:23.481Z,19.28
2022-10-17T15:09:51.601Z,19.43
2022-10-17T15:12:20.789Z,19.44
2022-10-17T15:14:51.547Z,19.29
2022-10-17T15:17:29.925Z,19.36
2022-10-17T15:19:57.341Z,19.45
2022-10-17T15:22:24.288Z,19.33
2022-10-17T15:24:50.742Z,19.29
2022-10-17T15:27:19.743Z,19.22
2022-10-17T15:29:47.068Z,19.32
2022-10-17T15:32:14.294Z,19.23
2022-10-17T15:34:40.824Z,19.07
2022-10-17T15:37:16.330Z,19.06
2022-10-17T15:39:42.697Z,19.00
2022-10-17T15:42:11.812Z,18.90
2022-10-17T15:44:38.177Z,18.81
2022-10-17T15:47:22.380Z,18.68
2022-10-17T15:49:48.744Z,18.53
2022-10-17T15:52:15.092Z,18.49
2022-10-17T15:54:41.472Z,18.40
2022-10-17T15:57:17.749Z,18.23
2022-10-17T15:59:46.804Z,18.14
2022-10-17T16:02:14.901Z,18.03
2022-10-17T16:04:41.379Z,17.79
2022-10-17T16:07:07.970Z,17.76
2022-10-17T16:09:34.981Z,17.54
2022-10-17T16:12:01.743Z,17.42
2022-10-17T16:14:28.416Z,17.32
2022-10-17T16:16:54.772Z,17.15
2022-10-17T16:19:21.663Z,17.09
2022-10-17T16:21:48.055Z,17.06
2022-10-17T16:24:14.391Z,16.91
2022-10-17T16:26:41.023Z,16.80
2022-10-17T16:29:09.218Z,16.79
2022-10-17T16:31:39.886Z,16.71
2022-10-17T16:34:06.768Z,16.73
2022-10-17T16:36:33.128Z,16.64
2022-10-17T16:38:59.503Z,16.62
2022-10-17T16:41:54.781Z,16.57
2022-10-17T16:44:24.101Z,16.53
2022-10-17T16:46:50.463Z,16.66
2022-10-17T16:49:18.156Z,16.81
2022-10-17T16:51:44.564Z,16.73
2022-10-17T16:54:10.916Z,16.69
2022-10-17T16:56:37.306Z,16.50
2022-10-17T16:59:04.113Z,16.34
2022-10-17T17:01:30.557Z,16.21
2022-10-17T17:03:57.086Z,16.16
2022-10-17T17:06:28.631Z,16.06
2022-10-17T17:08:55.903Z,15.92
2022-10-17T17:11:24.332Z,15.94
2022-10-17T17:13:50.684Z,15.75
2022-10-17T17:16:21.568Z,15.65
2022-10-17T17:18:50.779Z,15.68
2022-10-17T17:21:17.255Z,15.63
2022-10-17T17:23:43.780Z,15.53
2022-10-17T17:26:13.478Z,15.47
2022-10-17T17:28:40.793Z,15.46
2022-10-17T17:31:09.921Z,15.33
2022-10-17T17:33:38.555Z,15.15
2022-10-17T17:36:06.349Z,15.14
2022-10-17T17:38:34.663Z,15.22
2022-10-17T17:41:01.871Z,15.12
2022-10-17T17:43:28.595Z,14.99
2022-10-17T17:45:55.105Z,15.00
2022-10-17T17:48:21.697Z,15.01
2022-10-17T17:50:48.359Z,14.95
2022-10-17T17:53:16.253Z,14.92
2022-10-17T17:55:42.590Z,15.03
2022-10-17T17:58:09.721Z,14.93
2022-10-17T18:00:36.274Z,14.83
2022-10-17T18:03:02.974Z,14.79
2022-10-17T18:05:29.765Z,14.69
2022-10-17T18:07:56.196Z,14.65
2022-10-17T18:10:22.576Z,14.63
2022-10-17T18:12:48.931Z,14.66
2022-10-17T18:15:15.524Z,14.61
2022-10-17T18:17:42.361Z,14.72
2022-10-17T18:20:09.361Z,14.66
2022-10-17T18:22:35.758Z,14.74
2022-10-17T18:25:02.755Z,14.62
2022-10-17T18:27:29.174Z,14.52
2022-10-17T18:29:56.129Z,14.57
2022-10-17T18:32:22.543Z,14.48
2022-10-17T18:34:48.884Z,14.43
2022-10-17T18:37:15.240Z,14.40
2022-10-17T18:39:41.595Z,14.36
2022-10-17T18:42:08.098Z,14.48
2022-10-17T18:44:34.490Z,14.47
2022-10-17T18:47:03.924Z,14.37
2022-10-17T18:49:31.101Z,14.31
2022-10-17T18:51:57.565Z,14.31
2022-10-17T18:54:24.345Z,14.26
2022-10-17T18:56:53.127Z,14.34
2022-10-17T18:59:20.554Z,14.30
2022-10-17T19:01:47.429Z,14.29
2022-10-17T19:04:14.338Z,14.39
2022-10-17T19:06:41.638Z,14.34
2022-10-17T19:09:10.337Z,14.32
2022-10-17T19:11:38.178Z,14.29
2022-10-17T19:14:12.580Z,14.33
2022-10-17T19:16:42.729Z,14.38
2022-10-17T19:19:15.486Z,14.39
2022-10-17T19:21:42.004Z,14.32
2022-10-17T19:24:12.638Z,14.28
2022-10-17T19:26:40.618Z,14.29
2022-10-17T19:29:07.082Z,14.31
2022-10-17T19:31:34.898Z,14.34
2022-10-17T19:34:01.300Z,14.34
2022-10-17T19:36:33.350Z,14.30
2022-10-17T19:39:02.235Z,14.45
2022-10-17T19:41:28.733Z,14.43
2022-10-17T19:43:55.167Z,14.40
2022-10-17T19:46:24.036Z,14.51
2022-10-17T19:48:51.183Z,14.61
2022-10-17T19:51:19.370Z,14.55
2022-10-17T19:53:46.802Z,14.57
2022-10-17T19:56:14.096Z,14.52
2022-10-17T19:58:46.595Z,14.51
2022-10-17T20:01:19.090Z,14.54
2022-10-17T20:03:46.449Z,14.56
2022-10-17T20:06:13.515Z,14.58
2022-10-17T20:08:40.666Z,14.53
2022-10-17T20:11:10.434Z,14.58
2022-10-17T20:13:37.463Z,14.53
2022-10-17T20:16:06.187Z,14.46
2022-10-17T20:18:32.655Z,14.50
2022-10-17T20:21:08.343Z,14.62
2022-10-17T20:23:35.164Z,14.72
2022-10-17T20:26:08.600Z,14.63
2022-10-17T20:28:51.106Z,14.57
2022-10-17T20:31:18.080Z,14.62
2022-10-17T20:33:44.604Z,14.63
2022-10-17T20:36:12.237Z,14.56
2022-10-17T20:38:38.787Z,14.57
2022-10-17T20:41:08.598Z,14.64
2022-10-17T20:43:35.628Z,14.64
2022-10-17T20:46:15.465Z,14.64
2022-10-17T20:48:52.680Z,14.60
2022-10-17T20:51:20.574Z,14.67
2022-10-17T20:53:48.033Z,14.71
2022-10-17T20:56:21.178Z,14.63
2022-10-17T20:58:56.025Z,14.71
2022-10-17T21:01:23.200Z,14.74
2022-10-17T21:03:50.119Z,14.75
2022-10-17T21:06:17.926Z,14.69
2022-10-17T21:08:46.052Z,14.69
2022-10-17T21:11:18.338Z,14.76
2022-10-17T21:13:45.939Z,14.86
2022-10-17T21:16:18.191Z,14.90
2022-10-17T21:18:45.667Z,14.87
2022-10-17T21:21:11.935Z,14.84
2022-10-17T21:23:39.607Z,14.78
2022-10-17T21:26:08.804Z,14.88
2022-10-17T21:28:36.824Z,15.01
2022-10-17T21:31:20.164Z,14.93
2022-10-17T21:33:49.818Z,14.89
2022-10-17T21:36:17.841Z,14.82
2022-10-17T21:38:46.057Z,14.97
2022-10-17T21:41:14.469Z,14.94
2022-10-17T21:43:42.624Z,14.88
2022-10-17T21:46:14.587Z,14.94
2022-10-17T21:48:41.564Z,15.00
2022-10-17T21:51:12.738Z,15.00
2022-10-17T21:53:39.091Z,15.06
2022-10-17T21:56:08.226Z,15.08
2022-10-17T21:58:34.766Z,15.14
2022-10-17T22:01:06.416Z,15.10
2022-10-17T22:03:38.646Z,15.02
2022-10-17T22:06:34.540Z,14.99
2022-10-17T22:08:55.706Z,15.02
2022-10-17T22:11:30.847Z,15.03
2022-10-17T22:13:59.636Z,14.96
2022-10-17T22:16:26.449Z,14.95
2022-10-17T22:18:56.417Z,14.95
2022-10-17T22:21:22.896Z,14.96
2022-10-17T22:23:58.906Z,15.01
2022-10-17T22:26:26.677Z,14.95
2022-10-17T22:28:53.351Z,15.09
2022-10-17T22:31:20.002Z,15.05
2022-10-17T22:33:46.628Z,15.05
2022-10-17T22:36:13.526Z,15.12
2022-10-17T22:38:39.946Z,15.01
2022-10-17T22:41:06.564Z,15.01
2022-10-17T22:43:32.937Z,15.02
2022-10-17T22:46:01.704Z,14.97
2022-10-17T22:48:29.155Z,15.01
2022-10-17T22:50:57.283Z,15.00
2022-10-17T22:53:26.170Z,14.98
2022-10-17T22:55:56.817Z,14.98
2022-10-17T22:58:24.091Z,14.91
2022-10-17T23:00:51.884Z,15.05
2022-10-17T23:03:19.394Z,14.95
2022-10-17T23:05:45.768Z,14.98
2022-10-17T23:08:13.471Z,14.98
2022-10-17T23:10:39.878Z,14.97
2022-10-17T23:13:06.715Z,14.94
2022-10-17T23:15:33.955Z,15.00
2022-10-17T23:18:01.271Z,14.95
2022-10-17T23:20:28.981Z,14.94
2022-10-17T23:22:55.542Z,14.92
2022-10-17T23:25:22.495Z,14.93
2022-10-17T23:27:49.069Z,15.02
2022-10-17T23:30:15.627Z,15.06
2022-10-17T23:32:41.997Z,15.05
2022-10-17T23:35:08.827Z,15.03
2022-10-17T23:37:35.819Z,14.97
2022-10-17T23:40:03.435Z,14.98
2022-10-17T23:42:29.858Z,14.96
2022-10-17T23:44:56.211Z,14.99
2022-10-17T23:47:22.598Z,15.00
2022-10-17T23:49:49.016Z,15.09
2022-10-17T23:52:15.653Z,15.07
2022-10-17T23:57:13.289Z,15.02
2022-10-17T23:59:39.640Z,15.22
